sensor_id;sensor_type;location;lat;lon;timestamp;P1;durP1;ratioP1;P2;durP2;ratioP2
9745;SDS011;4912;50.836;12.958;2022-09-17T00:02:34;4.85;;;1.70;;
9745;SDS011;4912;50.836;12.958;2022-09-17T00:05:04;6.60;;;1.77;;
9745;SDS011;4912;50.836;12.958;2022-09-17T00:07:36;5.43;;;1.55;;
9745;SDS011;4912;50.836;12.958;2022-09-17T00:10:06;5.70;;;1.42;;
9745;SDS011;4912;50.836;12.958;2022-09-17T00:15:10;4.88;;;1.58;;
9745;SDS011;4912;50.836;12.958;2022-09-17T00:17:41;6.85;;;1.90;;
9745;SDS011;4912;50.836;12.958;2022-09-17T00:20:12;5.05;;;1.50;;
9745;SDS011;4912;50.836;12.958;2022-09-17T00:22:42;4.50;;;1.50;;
9745;SDS011;4912;50.836;12.958;2022-09-17T00:25:12;5.53;;;1.60;;
9745;SDS011;4912;50.836;12.958;2022-09-17T00:27:43;5.30;;;1.40;;
9745;SDS011;4912;50.836;12.958;2022-09-17T00:30:16;6.70;;;2.00;;
9745;SDS011;4912;50.836;12.958;2022-09-17T00:32:46;6.15;;;1.80;;
9745;SDS011;4912;50.836;12.958;2022-09-17T00:35:17;3.78;;;1.58;;
9745;SDS011;4912;50.836;12.958;2022-09-17T00:37:47;4.50;;;1.70;;
9745;SDS011;4912;50.836;12.958;2022-09-17T00:40:17;4.20;;;1.40;;
9745;SDS011;4912;50.836;12.958;2022-09-17T00:42:47;6.05;;;1.55;;
9745;SDS011;4912;50.836;12.958;2022-09-17T00:47:54;4.63;;;1.65;;
9745;SDS011;4912;50.836;12.958;2022-09-17T00:50:29;4.57;;;1.40;;
9745;SDS011;4912;50.836;12.958;2022-09-17T00:53:04;5.85;;;1.60;;
9745;SDS011;4912;50.836;12.958;2022-09-17T00:55:37;3.53;;;1.38;;
9745;SDS011;4912;50.836;12.958;2022-09-17T00:58:11;7.88;;;2.38;;
9745;SDS011;4912;50.836;12.958;2022-09-17T01:00:48;5.85;;;1.27;;
9745;SDS011;4912;50.836;12.958;2022-09-17T01:03:18;5.03;;;1.45;;
9745;SDS011;4912;50.836;12.958;2022-09-17T01:05:48;4.03;;;1.30;;
9745;SDS011;4912;50.836;12.958;2022-09-17T01:08:29;6.75;;;1.63;;
9745;SDS011;4912;50.836;12.958;2022-09-17T01:11:13;6.70;;;1.55;;
9745;SDS011;4912;50.836;12.958;2022-09-17T01:13:58;5.85;;;1.88;;
9745;SDS011;4912;50.836;12.958;2022-09-17T01:16:47;5.95;;;1.50;;
9745;SDS011;4912;50.836;12.958;2022-09-17T01:19:34;4.22;;;1.90;;
9745;SDS011;4912;50.836;12.958;2022-09-17T01:22:36;8.40;;;1.83;;
9745;SDS011;4912;50.836;12.958;2022-09-17T01:25:23;8.05;;;1.52;;
9745;SDS011;4912;50.836;12.958;2022-09-17T01:31:05;5.85;;;1.60;;
9745;SDS011;4912;50.836;12.958;2022-09-17T01:33:47;5.03;;;1.40;;
9745;SDS011;4912;50.836;12.958;2022-09-17T01:36:32;6.20;;;1.52;;
9745;SDS011;4912;50.836;12.958;2022-09-17T01:39:27;6.05;;;1.35;;
9745;SDS011;4912;50.836;12.958;2022-09-17T01:42:12;4.47;;;1.13;;
9745;SDS011;4912;50.836;12.958;2022-09-17T01:44:50;3.83;;;1.30;;
9745;SDS011;4912;50.836;12.958;2022-09-17T01:47:32;3.97;;;1.30;;
9745;SDS011;4912;50.836;12.958;2022-09-17T01:50:07;4.82;;;1.30;;
9745;SDS011;4912;50.836;12.958;2022-09-17T01:52:43;7.85;;;1.35;;
9745;SDS011;4912;50.836;12.958;2022-09-17T01:55:17;7.00;;;1.30;;
9745;SDS011;4912;50.836;12.958;2022-09-17T01:57:53;5.45;;;1.50;;
9745;SDS011;4912;50.836;12.958;2022-09-17T02:00:26;6.07;;;2.00;;
9745;SDS011;4912;50.836;12.958;2022-09-17T02:03:00;4.82;;;1.67;;
9745;SDS011;4912;50.836;12.958;2022-09-17T02:05:38;3.97;;;1.33;;
9745;SDS011;4912;50.836;12.958;2022-09-17T02:08:12;6.22;;;1.30;;
9745;SDS011;4912;50.836;12.958;2022-09-17T02:10:48;7.72;;;1.52;;
9745;SDS011;4912;50.836;12.958;2022-09-17T02:13:25;6.95;;;2.50;;
9745;SDS011;4912;50.836;12.958;2022-09-17T02:16:02;6.00;;;1.52;;
9745;SDS011;4912;50.836;12.958;2022-09-17T02:18:41;6.60;;;1.30;;
9745;SDS011;4912;50.836;12.958;2022-09-17T02:21:20;7.07;;;1.45;;
9745;SDS011;4912;50.836;12.958;2022-09-17T02:24:00;9.77;;;1.63;;
9745;SDS011;4912;50.836;12.958;2022-09-17T02:26:38;6.30;;;1.48;;
9745;SDS011;4912;50.836;12.958;2022-09-17T02:29:16;2.88;;;1.20;;
9745;SDS011;4912;50.836;12.958;2022-09-17T02:31:55;3.72;;;1.20;;
9745;SDS011;4912;50.836;12.958;2022-09-17T02:34:28;7.28;;;1.80;;
9745;SDS011;4912;50.836;12.958;2022-09-17T02:36:58;3.97;;;1.40;;
9745;SDS011;4912;50.836;12.958;2022-09-17T02:39:30;4.57;;;1.42;;
9745;SDS011;4912;50.836;12.958;2022-09-17T02:42:02;7.97;;;1.42;;
9745;SDS011;4912;50.836;12.958;2022-09-17T02:44:46;3.95;;;1.58;;
9745;SDS011;4912;50.836;12.958;2022-09-17T02:47:30;15.55;;;2.83;;
9745;SDS011;4912;50.836;12.958;2022-09-17T02:50:37;5.22;;;1.40;;
9745;SDS011;4912;50.836;12.958;2022-09-17T02:53:42;5.80;;;1.60;;
9745;SDS011;4912;50.836;12.958;2022-09-17T02:56:20;4.68;;;2.17;;
9745;SDS011;4912;50.836;12.958;2022-09-17T02:59:04;6.20;;;1.88;;
9745;SDS011;4912;50.836;12.958;2022-09-17T03:01:45;5.10;;;1.70;;
9745;SDS011;4912;50.836;12.958;2022-09-17T03:04:24;8.27;;;1.85;;
9745;SDS011;4912;50.836;12.958;2022-09-17T03:06:59;8.95;;;1.95;;
9745;SDS011;4912;50.836;12.958;2022-09-17T03:09:34;3.28;;;1.50;;
9745;SDS011;4912;50.836;12.958;2022-09-17T03:12:05;4.30;;;1.63;;
9745;SDS011;4912;50.836;12.958;2022-09-17T03:14:35;9.60;;;1.90;;
9745;SDS011;4912;50.836;12.958;2022-09-17T03:17:06;5.13;;;1.80;;
9745;SDS011;4912;50.836;12.958;2022-09-17T03:19:36;7.47;;;2.00;;
9745;SDS011;4912;50.836;12.958;2022-09-17T03:22:09;7.03;;;2.40;;
9745;SDS011;4912;50.836;12.958;2022-09-17T03:24:40;7.18;;;2.45;;
9745;SDS011;4912;50.836;12.958;2022-09-17T03:27:10;6.83;;;2.17;;
9745;SDS011;4912;50.836;12.958;2022-09-17T03:29:40;7.97;;;2.30;;
9745;SDS011;4912;50.836;12.958;2022-09-17T03:32:10;4.15;;;2.33;;
9745;SDS011;4912;50.836;12.958;2022-09-17T03:34:41;4.50;;;2.30;;
9745;SDS011;4912;50.836;12.958;2022-09-17T03:37:15;8.85;;;2.80;;
9745;SDS011;4912;50.836;12.958;2022-09-17T03:39:45;5.05;;;2.58;;
9745;SDS011;4912;50.836;12.958;2022-09-17T03:42:15;8.30;;;2.60;;
9745;SDS011;4912;50.836;12.958;2022-09-17T03:44:45;9.82;;;3.22;;
9745;SDS011;4912;50.836;12.958;2022-09-17T03:47:15;5.93;;;2.60;;
9745;SDS011;4912;50.836;12.958;2022-09-17T03:49:45;5.80;;;2.28;;
9745;SDS011;4912;50.836;12.958;2022-09-17T03:52:18;6.78;;;2.30;;
9745;SDS011;4912;50.836;12.958;2022-09-17T03:54:48;6.55;;;2.67;;
9745;SDS011;4912;50.836;12.958;2022-09-17T03:57:18;5.63;;;2.72;;
9745;SDS011;4912;50.836;12.958;2022-09-17T03:59:48;6.97;;;2.77;;
9745;SDS011;4912;50.836;12.958;2022-09-17T04:02:18;5.13;;;2.57;;
9745;SDS011;4912;50.836;12.958;2022-09-17T04:04:49;6.53;;;2.60;;
9745;SDS011;4912;50.836;12.958;2022-09-17T04:07:22;6.53;;;2.90;;
9745;SDS011;4912;50.836;12.958;2022-09-17T04:09:52;6.18;;;2.85;;
9745;SDS011;4912;50.836;12.958;2022-09-17T04:12:22;6.82;;;3.30;;
9745;SDS011;4912;50.836;12.958;2022-09-17T04:14:52;6.87;;;3.40;;
9745;SDS011;4912;50.836;12.958;2022-09-17T04:17:22;6.23;;;3.80;;
9745;SDS011;4912;50.836;12.958;2022-09-17T04:19:52;7.17;;;3.90;;
9745;SDS011;4912;50.836;12.958;2022-09-17T04:22:25;7.63;;;3.40;;
9745;SDS011;4912;50.836;12.958;2022-09-17T04:24:56;8.25;;;3.20;;
9745;SDS011;4912;50.836;12.958;2022-09-17T04:27:26;5.75;;;3.30;;
9745;SDS011;4912;50.836;12.958;2022-09-17T04:29:55;9.13;;;3.80;;
9745;SDS011;4912;50.836;12.958;2022-09-17T04:32:27;6.55;;;3.20;;
9745;SDS011;4912;50.836;12.958;2022-09-17T04:34:57;8.23;;;3.77;;
9745;SDS011;4912;50.836;12.958;2022-09-17T04:37:30;12.20;;;3.60;;
9745;SDS011;4912;50.836;12.958;2022-09-17T04:40:00;7.60;;;2.95;;
9745;SDS011;4912;50.836;12.958;2022-09-17T04:42:33;15.75;;;4.28;;
9745;SDS011;4912;50.836;12.958;2022-09-17T04:45:04;6.57;;;3.40;;
9745;SDS011;4912;50.836;12.958;2022-09-17T04:47:37;8.82;;;3.90;;
9745;SDS011;4912;50.836;12.958;2022-09-17T04:50:08;7.65;;;3.47;;
9745;SDS011;4912;50.836;12.958;2022-09-17T04:52:43;5.03;;;3.20;;
9745;SDS011;4912;50.836;12.958;2022-09-17T04:55:14;9.00;;;5.38;;
9745;SDS011;4912;50.836;12.958;2022-09-17T04:57:45;7.43;;;4.07;;
9745;SDS011;4912;50.836;12.958;2022-09-17T05:02:48;5.03;;;3.07;;
9745;SDS011;4912;50.836;12.958;2022-09-17T05:05:20;4.80;;;2.90;;
9745;SDS011;4912;50.836;12.958;2022-09-17T05:07:54;5.47;;;2.67;;
9745;SDS011;4912;50.836;12.958;2022-09-17T05:10:24;5.85;;;2.80;;
9745;SDS011;4912;50.836;12.958;2022-09-17T05:12:55;4.55;;;3.08;;
9745;SDS011;4912;50.836;12.958;2022-09-17T05:15:25;5.63;;;2.75;;
9745;SDS011;4912;50.836;12.958;2022-09-17T05:17:56;6.73;;;3.27;;
9745;SDS011;4912;50.836;12.958;2022-09-17T05:20:26;8.23;;;2.90;;
9745;SDS011;4912;50.836;12.958;2022-09-17T05:22:59;3.03;;;2.23;;
9745;SDS011;4912;50.836;12.958;2022-09-17T05:25:29;3.92;;;2.30;;
9745;SDS011;4912;50.836;12.958;2022-09-17T05:27:59;3.13;;;1.90;;
9745;SDS011;4912;50.836;12.958;2022-09-17T05:30:29;3.22;;;1.98;;
9745;SDS011;4912;50.836;12.958;2022-09-17T05:33:00;3.35;;;2.00;;
9745;SDS011;4912;50.836;12.958;2022-09-17T05:35:32;3.33;;;2.10;;
9745;SDS011;4912;50.836;12.958;2022-09-17T05:38:06;3.63;;;1.98;;
9745;SDS011;4912;50.836;12.958;2022-09-17T05:40:36;3.10;;;1.80;;
9745;SDS011;4912;50.836;12.958;2022-09-17T05:43:06;2.90;;;1.77;;
9745;SDS011;4912;50.836;12.958;2022-09-17T05:45:38;3.55;;;1.85;;
9745;SDS011;4912;50.836;12.958;2022-09-17T05:48:08;4.50;;;1.90;;
9745;SDS011;4912;50.836;12.958;2022-09-17T05:50:41;3.53;;;1.90;;
9745;SDS011;4912;50.836;12.958;2022-09-17T05:53:15;2.53;;;1.80;;
9745;SDS011;4912;50.836;12.958;2022-09-17T05:55:45;4.30;;;2.03;;
9745;SDS011;4912;50.836;12.958;2022-09-17T05:58:15;3.15;;;2.00;;
9745;SDS011;4912;50.836;12.958;2022-09-17T06:00:47;3.40;;;2.25;;
9745;SDS011;4912;50.836;12.958;2022-09-17T06:03:18;5.23;;;2.13;;
9745;SDS011;4912;50.836;12.958;2022-09-17T06:05:52;3.83;;;2.50;;
9745;SDS011;4912;50.836;12.958;2022-09-17T06:08:27;5.93;;;2.60;;
9745;SDS011;4912;50.836;12.958;2022-09-17T06:10:58;3.45;;;2.30;;
9745;SDS011;4912;50.836;12.958;2022-09-17T06:13:33;3.78;;;2.50;;
9745;SDS011;4912;50.836;12.958;2022-09-17T06:16:04;4.45;;;2.40;;
9745;SDS011;4912;50.836;12.958;2022-09-17T06:18:35;3.53;;;2.10;;
9745;SDS011;4912;50.836;12.958;2022-09-17T06:21:05;4.78;;;2.22;;
9745;SDS011;4912;50.836;12.958;2022-09-17T06:23:38;3.43;;;1.97;;
9745;SDS011;4912;50.836;12.958;2022-09-17T06:26:08;3.95;;;2.10;;
9745;SDS011;4912;50.836;12.958;2022-09-17T06:28:39;3.90;;;1.88;;
9745;SDS011;4912;50.836;12.958;2022-09-17T06:31:10;4.00;;;1.70;;
9745;SDS011;4912;50.836;12.958;2022-09-17T06:33:42;2.00;;;1.40;;
9745;SDS011;4912;50.836;12.958;2022-09-17T06:36:13;3.10;;;1.60;;
9745;SDS011;4912;50.836;12.958;2022-09-17T06:38:46;2.93;;;1.50;;
9745;SDS011;4912;50.836;12.958;2022-09-17T06:41:16;3.03;;;1.50;;
9745;SDS011;4912;50.836;12.958;2022-09-17T06:43:46;3.23;;;1.30;;
9745;SDS011;4912;50.836;12.958;2022-09-17T06:46:16;6.43;;;1.60;;
9745;SDS011;4912;50.836;12.958;2022-09-17T06:48:46;3.77;;;1.60;;
9745;SDS011;4912;50.836;12.958;2022-09-17T06:51:17;5.43;;;1.70;;
9745;SDS011;4912;50.836;12.958;2022-09-17T06:53:50;5.68;;;1.67;;
9745;SDS011;4912;50.836;12.958;2022-09-17T06:56:20;8.85;;;2.53;;
9745;SDS011;4912;50.836;12.958;2022-09-17T06:58:50;4.68;;;1.83;;
9745;SDS011;4912;50.836;12.958;2022-09-17T07:01:20;8.13;;;2.17;;
9745;SDS011;4912;50.836;12.958;2022-09-17T07:03:50;7.90;;;2.27;;
9745;SDS011;4912;50.836;12.958;2022-09-17T07:06:20;10.20;;;2.08;;
9745;SDS011;4912;50.836;12.958;2022-09-17T07:08:53;6.72;;;1.90;;
9745;SDS011;4912;50.836;12.958;2022-09-17T07:11:23;12.07;;;2.58;;
9745;SDS011;4912;50.836;12.958;2022-09-17T07:13:54;9.13;;;4.18;;
9745;SDS011;4912;50.836;12.958;2022-09-17T07:16:24;8.88;;;3.00;;
9745;SDS011;4912;50.836;12.958;2022-09-17T07:18:56;8.55;;;2.80;;
9745;SDS011;4912;50.836;12.958;2022-09-17T07:21:26;7.87;;;2.50;;
9745;SDS011;4912;50.836;12.958;2022-09-17T07:23:58;7.87;;;2.53;;
9745;SDS011;4912;50.836;12.958;2022-09-17T07:26:29;10.63;;;2.55;;
9745;SDS011;4912;50.836;12.958;2022-09-17T07:28:59;7.07;;;2.77;;
9745;SDS011;4912;50.836;12.958;2022-09-17T07:31:29;6.53;;;2.93;;
9745;SDS011;4912;50.836;12.958;2022-09-17T07:33:59;12.05;;;3.58;;
9745;SDS011;4912;50.836;12.958;2022-09-17T07:36:29;6.23;;;2.30;;
9745;SDS011;4912;50.836;12.958;2022-09-17T07:39:02;16.23;;;2.72;;
9745;SDS011;4912;50.836;12.958;2022-09-17T07:41:32;14.57;;;3.95;;
9745;SDS011;4912;50.836;12.958;2022-09-17T07:44:02;8.60;;;2.77;;
9745;SDS011;4912;50.836;12.958;2022-09-17T07:46:33;10.57;;;2.80;;
9745;SDS011;4912;50.836;12.958;2022-09-17T07:49:04;7.22;;;2.75;;
9745;SDS011;4912;50.836;12.958;2022-09-17T07:51:34;7.73;;;2.53;;
9745;SDS011;4912;50.836;12.958;2022-09-17T07:54:08;10.52;;;2.78;;
9745;SDS011;4912;50.836;12.958;2022-09-17T07:56:39;6.43;;;2.20;;
9745;SDS011;4912;50.836;12.958;2022-09-17T07:59:10;10.15;;;2.78;;
9745;SDS011;4912;50.836;12.958;2022-09-17T08:04:11;9.50;;;3.25;;
9745;SDS011;4912;50.836;12.958;2022-09-17T08:06:41;9.43;;;3.13;;
9745;SDS011;4912;50.836;12.958;2022-09-17T08:09:16;11.27;;;2.58;;
9745;SDS011;4912;50.836;12.958;2022-09-17T08:11:48;11.50;;;2.70;;
9745;SDS011;4912;50.836;12.958;2022-09-17T08:14:22;9.00;;;2.90;;
9745;SDS011;4912;50.836;12.958;2022-09-17T08:16:55;10.48;;;2.38;;
9745;SDS011;4912;50.836;12.958;2022-09-17T08:19:25;11.45;;;3.03;;
9745;SDS011;4912;50.836;12.958;2022-09-17T08:21:58;12.00;;;2.53;;
9745;SDS011;4912;50.836;12.958;2022-09-17T08:24:31;6.87;;;2.53;;
9745;SDS011;4912;50.836;12.958;2022-09-17T08:27:01;7.72;;;2.13;;
9745;SDS011;4912;50.836;12.958;2022-09-17T08:29:32;6.20;;;1.85;;
9745;SDS011;4912;50.836;12.958;2022-09-17T08:32:02;7.50;;;1.80;;
9745;SDS011;4912;50.836;12.958;2022-09-17T08:34:33;9.15;;;2.80;;
9745;SDS011;4912;50.836;12.958;2022-09-17T08:37:03;8.80;;;2.08;;
9745;SDS011;4912;50.836;12.958;2022-09-17T08:39:36;6.53;;;1.92;;
9745;SDS011;4912;50.836;12.958;2022-09-17T08:42:07;5.25;;;1.42;;
9745;SDS011;4912;50.836;12.958;2022-09-17T08:44:46;8.27;;;2.03;;
9745;SDS011;4912;50.836;12.958;2022-09-17T08:47:22;8.80;;;2.10;;
9745;SDS011;4912;50.836;12.958;2022-09-17T08:49:59;7.15;;;2.03;;
9745;SDS011;4912;50.836;12.958;2022-09-17T08:52:45;10.23;;;2.45;;
9745;SDS011;4912;50.836;12.958;2022-09-17T08:55:32;6.65;;;1.60;;
9745;SDS011;4912;50.836;12.958;2022-09-17T08:58:22;8.13;;;1.67;;
9745;SDS011;4912;50.836;12.958;2022-09-17T09:01:11;8.70;;;2.20;;
9745;SDS011;4912;50.836;12.958;2022-09-17T09:04:08;7.63;;;2.13;;
9745;SDS011;4912;50.836;12.958;2022-09-17T09:07:16;8.65;;;1.55;;
9745;SDS011;4912;50.836;12.958;2022-09-17T09:09:52;6.85;;;1.73;;
9745;SDS011;4912;50.836;12.958;2022-09-17T09:12:38;10.48;;;1.98;;
9745;SDS011;4912;50.836;12.958;2022-09-17T09:15:16;8.05;;;1.83;;
9745;SDS011;4912;50.836;12.958;2022-09-17T09:17:56;12.02;;;4.22;;
9745;SDS011;4912;50.836;12.958;2022-09-17T09:20:37;9.35;;;4.40;;
9745;SDS011;4912;50.836;12.958;2022-09-17T09:23:18;10.25;;;2.13;;
9745;SDS011;4912;50.836;12.958;2022-09-17T09:25:59;7.50;;;2.00;;
9745;SDS011;4912;50.836;12.958;2022-09-17T09:28:55;10.53;;;2.23;;
9745;SDS011;4912;50.836;12.958;2022-09-17T09:31:40;9.88;;;2.08;;
9745;SDS011;4912;50.836;12.958;2022-09-17T09:34:24;12.00;;;2.33;;
9745;SDS011;4912;50.836;12.958;2022-09-17T09:36:57;5.72;;;2.00;;
9745;SDS011;4912;50.836;12.958;2022-09-17T09:39:40;6.80;;;1.88;;
9745;SDS011;4912;50.836;12.958;2022-09-17T09:42:15;7.90;;;1.70;;
9745;SDS011;4912;50.836;12.958;2022-09-17T09:44:59;6.97;;;2.08;;
9745;SDS011;4912;50.836;12.958;2022-09-17T09:47:45;8.90;;;1.80;;
9745;SDS011;4912;50.836;12.958;2022-09-17T09:50:32;6.32;;;1.80;;
9745;SDS011;4912;50.836;12.958;2022-09-17T09:53:35;6.97;;;2.08;;
9745;SDS011;4912;50.836;12.958;2022-09-17T09:56:25;9.77;;;2.10;;
9745;SDS011;4912;50.836;12.958;2022-09-17T09:59:05;5.10;;;1.40;;
9745;SDS011;4912;50.836;12.958;2022-09-17T10:01:40;5.68;;;1.70;;
9745;SDS011;4912;50.836;12.958;2022-09-17T10:04:16;5.43;;;1.60;;
9745;SDS011;4912;50.836;12.958;2022-09-17T10:06:50;6.95;;;1.95;;
9745;SDS011;4912;50.836;12.958;2022-09-17T10:09:22;6.78;;;2.05;;
9745;SDS011;4912;50.836;12.958;2022-09-17T10:12:02;7.35;;;1.60;;
9745;SDS011;4912;50.836;12.958;2022-09-17T10:14:46;8.15;;;1.50;;
9745;SDS011;4912;50.836;12.958;2022-09-17T10:17:21;9.07;;;1.80;;
9745;SDS011;4912;50.836;12.958;2022-09-17T10:20:12;8.30;;;1.95;;
9745;SDS011;4912;50.836;12.958;2022-09-17T10:22:48;7.47;;;1.70;;
9745;SDS011;4912;50.836;12.958;2022-09-17T10:25:26;6.10;;;1.48;;
9745;SDS011;4912;50.836;12.958;2022-09-17T10:28:00;8.68;;;1.90;;
9745;SDS011;4912;50.836;12.958;2022-09-17T10:30:34;11.25;;;2.28;;
9745;SDS011;4912;50.836;12.958;2022-09-17T10:33:20;9.32;;;1.70;;
9745;SDS011;4912;50.836;12.958;2022-09-17T10:35:54;8.05;;;1.80;;
9745;SDS011;4912;50.836;12.958;2022-09-17T10:38:28;8.00;;;1.50;;
9745;SDS011;4912;50.836;12.958;2022-09-17T10:41:08;10.00;;;1.65;;
9745;SDS011;4912;50.836;12.958;2022-09-17T10:43:44;7.93;;;1.67;;
9745;SDS011;4912;50.836;12.958;2022-09-17T10:46:16;6.10;;;1.45;;
9745;SDS011;4912;50.836;12.958;2022-09-17T10:49:04;4.70;;;1.52;;
9745;SDS011;4912;50.836;12.958;2022-09-17T10:51:39;10.75;;;2.15;;
9745;SDS011;4912;50.836;12.958;2022-09-17T10:54:15;7.93;;;1.85;;
9745;SDS011;4912;50.836;12.958;2022-09-17T10:57:09;4.30;;;1.70;;
9745;SDS011;4912;50.836;12.958;2022-09-17T10:59:57;11.35;;;3.92;;
9745;SDS011;4912;50.836;12.958;2022-09-17T11:02:57;11.82;;;6.72;;
9745;SDS011;4912;50.836;12.958;2022-09-17T11:05:56;8.27;;;1.67;;
9745;SDS011;4912;50.836;12.958;2022-09-17T11:08:46;7.35;;;1.60;;
9745;SDS011;4912;50.836;12.958;2022-09-17T11:11:29;7.93;;;1.92;;
9745;SDS011;4912;50.836;12.958;2022-09-17T11:14:15;6.35;;;1.60;;
9745;SDS011;4912;50.836;12.958;2022-09-17T11:17:10;9.77;;;2.10;;
9745;SDS011;4912;50.836;12.958;2022-09-17T11:19:54;8.20;;;1.77;;
9745;SDS011;4912;50.836;12.958;2022-09-17T11:22:40;8.13;;;1.67;;
9745;SDS011;4912;50.836;12.958;2022-09-17T11:25:26;9.43;;;1.85;;
9745;SDS011;4912;50.836;12.958;2022-09-17T11:28:17;6.07;;;1.67;;
9745;SDS011;4912;50.836;12.958;2022-09-17T11:31:06;6.60;;;1.50;;
9745;SDS011;4912;50.836;12.958;2022-09-17T11:33:53;6.40;;;1.95;;
9745;SDS011;4912;50.836;12.958;2022-09-17T11:36:45;7.88;;;2.13;;
9745;SDS011;4912;50.836;12.958;2022-09-17T11:39:31;7.68;;;1.58;;
9745;SDS011;4912;50.836;12.958;2022-09-17T11:42:11;7.65;;;1.90;;
9745;SDS011;4912;50.836;12.958;2022-09-17T11:44:47;8.50;;;2.55;;
9745;SDS011;4912;50.836;12.958;2022-09-17T11:47:22;9.02;;;2.15;;
9745;SDS011;4912;50.836;12.958;2022-09-17T11:49:58;9.15;;;2.38;;
9745;SDS011;4912;50.836;12.958;2022-09-17T11:52:33;8.57;;;2.35;;
9745;SDS011;4912;50.836;12.958;2022-09-17T11:55:15;9.18;;;2.15;;
9745;SDS011;4912;50.836;12.958;2022-09-17T11:57:53;5.57;;;1.67;;
9745;SDS011;4912;50.836;12.958;2022-09-17T12:00:29;6.32;;;1.55;;
9745;SDS011;4912;50.836;12.958;2022-09-17T12:03:14;7.82;;;1.95;;
9745;SDS011;4912;50.836;12.958;2022-09-17T12:05:52;8.15;;;1.77;;
9745;SDS011;4912;50.836;12.958;2022-09-17T12:08:26;9.00;;;1.67;;
9745;SDS011;4912;50.836;12.958;2022-09-17T12:11:08;10.93;;;1.95;;
9745;SDS011;4912;50.836;12.958;2022-09-17T12:13:46;5.37;;;1.60;;
9745;SDS011;4912;50.836;12.958;2022-09-17T12:16:20;8.45;;;1.85;;
9745;SDS011;4912;50.836;12.958;2022-09-17T12:18:56;5.85;;;1.58;;
9745;SDS011;4912;50.836;12.958;2022-09-17T12:21:32;7.88;;;1.77;;
9745;SDS011;4912;50.836;12.958;2022-09-17T12:24:11;5.80;;;1.70;;
9745;SDS011;4912;50.836;12.958;2022-09-17T12:26:56;11.93;;;2.13;;
9745;SDS011;4912;50.836;12.958;2022-09-17T12:29:42;5.68;;;1.30;;
9745;SDS011;4912;50.836;12.958;2022-09-17T12:32:47;10.18;;;1.90;;
9745;SDS011;4912;50.836;12.958;2022-09-17T12:35:39;7.40;;;1.80;;
9745;SDS011;4912;50.836;12.958;2022-09-17T12:38:45;9.60;;;1.70;;
9745;SDS011;4912;50.836;12.958;2022-09-17T12:41:31;9.15;;;1.80;;
9745;SDS011;4912;50.836;12.958;2022-09-17T12:47:42;6.18;;;1.70;;
9745;SDS011;4912;50.836;12.958;2022-09-17T12:50:40;7.03;;;2.08;;
9745;SDS011;4912;50.836;12.958;2022-09-17T12:53:25;8.38;;;2.00;;
9745;SDS011;4912;50.836;12.958;2022-09-17T12:56:04;7.47;;;1.88;;
9745;SDS011;4912;50.836;12.958;2022-09-17T12:58:56;9.45;;;1.90;;
9745;SDS011;4912;50.836;12.958;2022-09-17T13:01:40;9.57;;;2.97;;
9745;SDS011;4912;50.836;12.958;2022-09-17T13:04:24;9.63;;;2.80;;
9745;SDS011;4912;50.836;12.958;2022-09-17T13:07:44;7.55;;;2.15;;
9745;SDS011;4912;50.836;12.958;2022-09-17T13:14:31;7.70;;;2.13;;
9745;SDS011;4912;50.836;12.958;2022-09-17T13:17:30;8.32;;;2.15;;
9745;SDS011;4912;50.836;12.958;2022-09-17T13:20:15;8.70;;;2.13;;
9745;SDS011;4912;50.836;12.958;2022-09-17T13:22:54;7.18;;;2.03;;
9745;SDS011;4912;50.836;12.958;2022-09-17T13:25:26;10.07;;;2.08;;
9745;SDS011;4912;50.836;12.958;2022-09-17T13:28:03;6.97;;;1.67;;
9745;SDS011;4912;50.836;12.958;2022-09-17T13:36:42;6.68;;;1.73;;
9745;SDS011;4912;50.836;12.958;2022-09-17T13:42:09;9.88;;;2.17;;
9745;SDS011;4912;50.836;12.958;2022-09-17T13:45:00;5.50;;;1.50;;
9745;SDS011;4912;50.836;12.958;2022-09-17T13:47:47;7.72;;;1.90;;
9745;SDS011;4912;50.836;12.958;2022-09-17T13:50:29;8.48;;;2.17;;
9745;SDS011;4912;50.836;12.958;2022-09-17T13:53:04;7.88;;;1.65;;
9745;SDS011;4912;50.836;12.958;2022-09-17T13:55:47;5.00;;;1.63;;
9745;SDS011;4912;50.836;12.958;2022-09-17T13:58:21;7.45;;;2.00;;
9745;SDS011;4912;50.836;12.958;2022-09-17T14:00:55;5.85;;;1.92;;
9745;SDS011;4912;50.836;12.958;2022-09-17T14:09:32;5.82;;;1.60;;
9745;SDS011;4912;50.836;12.958;2022-09-17T14:15:58;6.80;;;1.85;;
9745;SDS011;4912;50.836;12.958;2022-09-17T14:18:33;9.20;;;2.10;;
9745;SDS011;4912;50.836;12.958;2022-09-17T14:21:17;9.35;;;2.00;;
9745;SDS011;4912;50.836;12.958;2022-09-17T14:23:59;10.63;;;1.77;;
9745;SDS011;4912;50.836;12.958;2022-09-17T14:26:40;4.45;;;1.77;;
9745;SDS011;4912;50.836;12.958;2022-09-17T14:29:43;6.65;;;1.65;;
9745;SDS011;4912;50.836;12.958;2022-09-17T14:32:41;4.82;;;1.83;;
9745;SDS011;4912;50.836;12.958;2022-09-17T14:35:32;7.15;;;1.60;;
9745;SDS011;4912;50.836;12.958;2022-09-17T14:38:08;8.88;;;1.98;;
9745;SDS011;4912;50.836;12.958;2022-09-17T14:40:45;5.47;;;1.40;;
9745;SDS011;4912;50.836;12.958;2022-09-17T14:46:14;7.53;;;2.35;;
9745;SDS011;4912;50.836;12.958;2022-09-17T14:48:49;6.80;;;2.20;;
9745;SDS011;4912;50.836;12.958;2022-09-17T14:51:28;5.30;;;1.40;;
9745;SDS011;4912;50.836;12.958;2022-09-17T14:54:10;7.93;;;1.98;;
9745;SDS011;4912;50.836;12.958;2022-09-17T14:56:57;10.77;;;2.47;;
9745;SDS011;4912;50.836;12.958;2022-09-17T14:59:36;4.65;;;1.67;;
9745;SDS011;4912;50.836;12.958;2022-09-17T15:02:21;9.38;;;1.92;;
9745;SDS011;4912;50.836;12.958;2022-09-17T15:05:14;6.53;;;1.88;;
9745;SDS011;4912;50.836;12.958;2022-09-17T15:08:11;5.53;;;1.67;;
9745;SDS011;4912;50.836;12.958;2022-09-17T15:10:51;8.20;;;1.70;;
9745;SDS011;4912;50.836;12.958;2022-09-17T15:13:25;6.60;;;1.88;;
9745;SDS011;4912;50.836;12.958;2022-09-17T15:16:00;5.57;;;2.10;;
9745;SDS011;4912;50.836;12.958;2022-09-17T15:18:37;5.65;;;2.30;;
9745;SDS011;4912;50.836;12.958;2022-09-17T15:21:14;6.13;;;2.10;;
9745;SDS011;4912;50.836;12.958;2022-09-17T15:23:57;6.93;;;1.98;;
9745;SDS011;4912;50.836;12.958;2022-09-17T15:26:33;6.10;;;1.67;;
9745;SDS011;4912;50.836;12.958;2022-09-17T15:29:09;5.65;;;1.90;;
9745;SDS011;4912;50.836;12.958;2022-09-17T15:31:40;6.30;;;2.00;;
9745;SDS011;4912;50.836;12.958;2022-09-17T15:34:11;5.65;;;1.85;;
9745;SDS011;4912;50.836;12.958;2022-09-17T15:39:39;5.18;;;2.15;;
9745;SDS011;4912;50.836;12.958;2022-09-17T15:42:19;4.93;;;1.85;;
9745;SDS011;4912;50.836;12.958;2022-09-17T15:45:05;7.15;;;2.33;;
9745;SDS011;4912;50.836;12.958;2022-09-17T15:47:50;6.85;;;1.65;;
9745;SDS011;4912;50.836;12.958;2022-09-17T15:50:23;5.82;;;1.92;;
9745;SDS011;4912;50.836;12.958;2022-09-17T15:52:57;8.82;;;1.63;;
9745;SDS011;4912;50.836;12.958;2022-09-17T15:55:44;6.22;;;1.60;;
9745;SDS011;4912;50.836;12.958;2022-09-17T15:58:28;8.13;;;2.20;;
9745;SDS011;4912;50.836;12.958;2022-09-17T16:04:22;6.85;;;2.00;;
9745;SDS011;4912;50.836;12.958;2022-09-17T16:06:59;4.90;;;1.48;;
9745;SDS011;4912;50.836;12.958;2022-09-17T16:09:49;2.92;;;1.02;;
9745;SDS011;4912;50.836;12.958;2022-09-17T16:12:23;6.93;;;1.48;;
9745;SDS011;4912;50.836;12.958;2022-09-17T16:14:55;6.68;;;2.33;;
9745;SDS011;4912;50.836;12.958;2022-09-17T16:17:29;6.00;;;1.25;;
9745;SDS011;4912;50.836;12.958;2022-09-17T16:20:08;5.68;;;1.40;;
9745;SDS011;4912;50.836;12.958;2022-09-17T16:22:44;4.72;;;1.25;;
9745;SDS011;4912;50.836;12.958;2022-09-17T16:25:15;4.60;;;1.60;;
9745;SDS011;4912;50.836;12.958;2022-09-17T16:27:50;6.53;;;1.35;;
9745;SDS011;4912;50.836;12.958;2022-09-17T16:30:25;7.63;;;1.58;;
9745;SDS011;4912;50.836;12.958;2022-09-17T16:32:56;5.85;;;1.45;;
9745;SDS011;4912;50.836;12.958;2022-09-17T16:35:29;2.30;;;0.98;;
9745;SDS011;4912;50.836;12.958;2022-09-17T16:37:59;2.93;;;1.10;;
9745;SDS011;4912;50.836;12.958;2022-09-17T16:40:29;3.23;;;1.00;;
9745;SDS011;4912;50.836;12.958;2022-09-17T16:43:02;2.70;;;1.10;;
9745;SDS011;4912;50.836;12.958;2022-09-17T16:45:32;6.07;;;1.00;;
9745;SDS011;4912;50.836;12.958;2022-09-17T16:48:06;5.63;;;1.02;;
9745;SDS011;4912;50.836;12.958;2022-09-17T16:50:40;4.60;;;1.00;;